createdAt,value
2018-10-03T00:01:52.940Z,12.73
2018-10-03T00:04:21.133Z,13.63
2018-10-03T00:06:49.313Z,12.97
2018-10-03T00:09:17.525Z,13.93
2018-10-03T00:11:45.726Z,11.37
2018-10-03T00:14:13.901Z,10.10
2018-10-03T00:16:42.104Z,8.77
2018-10-03T00:19:10.347Z,7.60
2018-10-03T00:21:38.553Z,9.90
2018-10-03T00:24:06.724Z,11.57
2018-10-03T00:26:35.022Z,11.17
2018-10-03T00:29:03.200Z,8.83
2018-10-03T00:31:31.448Z,9.37
2018-10-03T00:33:59.629Z,7.40
2018-10-03T00:36:27.828Z,8.90
2018-10-03T00:38:56.001Z,7.80
2018-10-03T00:41:24.211Z,9.60
2018-10-03T00:43:52.385Z,7.00
2018-10-03T00:46:20.593Z,8.03
2018-10-03T00:48:48.766Z,10.03
2018-10-03T00:51:16.964Z,6.13
2018-10-03T00:53:45.142Z,8.93
2018-10-03T00:56:13.343Z,10.47
2018-10-03T00:58:41.526Z,7.33
2018-10-03T01:01:10.054Z,7.87
2018-10-03T01:03:38.229Z,6.77
2018-10-03T01:06:06.424Z,8.30
2018-10-03T01:08:34.597Z,9.13
2018-10-03T01:11:03.417Z,7.47
2018-10-03T01:13:31.616Z,6.33
2018-10-03T01:15:59.820Z,8.80
2018-10-03T01:18:28.002Z,10.00
2018-10-03T01:20:56.205Z,9.77
2018-10-03T01:23:24.379Z,9.90
2018-10-03T01:25:52.577Z,9.60
2018-10-03T01:28:20.762Z,11.13
2018-10-03T01:30:48.971Z,11.27
2018-10-03T01:33:17.140Z,8.60
2018-10-03T01:35:45.712Z,6.93
2018-10-03T01:38:14.238Z,7.90
2018-10-03T01:40:42.393Z,9.00
2018-10-03T01:43:10.613Z,9.47
2018-10-03T01:45:38.808Z,7.70
2018-10-03T01:48:06.974Z,9.17
2018-10-03T01:50:35.157Z,8.93
2018-10-03T01:53:03.367Z,9.97
2018-10-03T01:55:31.554Z,7.63
2018-10-03T01:57:59.757Z,6.47
2018-10-03T02:00:27.970Z,7.13
2018-10-03T02:02:56.173Z,5.77
2018-10-03T02:05:24.343Z,9.87
2018-10-03T02:07:52.803Z,10.47
2018-10-03T02:10:21.004Z,7.43
2018-10-03T02:12:49.305Z,8.37
2018-10-03T02:15:17.484Z,6.50
2018-10-03T02:17:45.748Z,6.73
2018-10-03T02:20:14.152Z,9.13
2018-10-03T02:22:42.357Z,11.13
2018-10-03T02:25:10.551Z,8.10
2018-10-03T02:27:38.765Z,8.57
2018-10-03T02:30:07.227Z,8.60
2018-10-03T02:32:35.425Z,7.40
2018-10-03T02:35:03.600Z,5.53
2018-10-03T02:37:31.796Z,8.03
2018-10-03T02:39:59.961Z,7.50
2018-10-03T02:42:28.176Z,10.57
2018-10-03T02:44:56.449Z,7.63
2018-10-03T02:47:24.658Z,7.00
2018-10-03T02:49:52.824Z,8.27
2018-10-03T02:52:21.020Z,9.17
2018-10-03T02:54:49.193Z,6.13
2018-10-03T02:57:17.393Z,7.57
2018-10-03T02:59:45.598Z,10.27
2018-10-03T03:02:13.809Z,7.57
2018-10-03T03:04:41.979Z,7.57
2018-10-03T03:07:10.257Z,8.87
2018-10-03T03:09:38.432Z,6.90
2018-10-03T03:12:06.689Z,6.03
2018-10-03T03:14:34.866Z,8.73
2018-10-03T03:17:03.129Z,9.13
2018-10-03T03:19:31.379Z,7.63
2018-10-03T03:21:59.669Z,9.80
2018-10-03T03:24:27.921Z,8.43
2018-10-03T03:26:56.217Z,6.30
2018-10-03T03:29:24.469Z,8.03
2018-10-03T03:31:52.787Z,10.93
2018-10-03T03:34:21.025Z,9.13
2018-10-03T03:36:49.317Z,9.73
2018-10-03T03:39:17.876Z,6.27
2018-10-03T03:41:46.061Z,4.80
2018-10-03T03:44:14.364Z,10.80
2018-10-03T03:46:42.613Z,11.30
2018-10-03T03:49:10.925Z,7.97
2018-10-03T03:51:39.170Z,6.47
2018-10-03T03:54:07.477Z,8.47
2018-10-03T03:59:27.693Z,9.67
2018-10-03T04:01:55.894Z,7.27
2018-10-03T04:04:24.092Z,9.00
2018-10-03T04:06:52.947Z,9.33
2018-10-03T04:09:21.174Z,11.73
2018-10-03T04:11:49.408Z,15.13
2018-10-03T04:14:17.610Z,10.33
2018-10-03T04:16:45.857Z,7.03
2018-10-03T04:19:14.069Z,9.70
2018-10-03T04:21:42.357Z,11.00
2018-10-03T04:24:11.550Z,7.33
2018-10-03T04:26:40.368Z,8.97
2018-10-03T04:29:08.624Z,9.07
2018-10-03T04:31:37.333Z,6.60
2018-10-03T04:34:06.075Z,8.43
2018-10-03T04:36:35.091Z,9.07
2018-10-03T04:39:04.993Z,10.00
2018-10-03T04:41:33.320Z,5.53
2018-10-03T04:44:01.620Z,12.73
2018-10-03T04:46:29.908Z,6.53
2018-10-03T04:48:58.186Z,6.60
2018-10-03T04:51:26.428Z,7.70
2018-10-03T04:53:54.632Z,7.60
2018-10-03T04:56:22.875Z,7.07
2018-10-03T04:58:51.081Z,6.50
2018-10-03T05:01:19.325Z,7.73
2018-10-03T05:03:47.520Z,6.90
2018-10-03T05:06:15.772Z,7.00
2018-10-03T05:08:43.965Z,8.80
2018-10-03T05:11:12.249Z,9.40
2018-10-03T05:13:40.548Z,12.73
2018-10-03T05:16:08.776Z,10.80
2018-10-03T05:18:36.977Z,9.00
2018-10-03T05:21:05.227Z,6.63
2018-10-03T05:23:34.240Z,10.83
2018-10-03T05:26:02.613Z,10.37
2018-10-03T05:28:30.897Z,7.23
2018-10-03T05:30:59.166Z,13.17
2018-10-03T05:33:27.468Z,6.00
2018-10-03T05:35:55.697Z,5.10
2018-10-03T05:38:23.890Z,8.17
2018-10-03T05:40:52.153Z,8.67
2018-10-03T05:43:20.663Z,9.47
2018-10-03T05:45:48.897Z,8.20
2018-10-03T05:48:17.156Z,5.93
2018-10-03T05:50:45.350Z,10.10
2018-10-03T05:53:13.549Z,4.57
2018-10-03T05:55:41.792Z,11.70
2018-10-03T05:58:09.973Z,9.67
2018-10-03T06:00:38.273Z,6.53
2018-10-03T06:03:06.553Z,8.13
2018-10-03T06:05:34.825Z,5.97
2018-10-03T06:08:03.065Z,9.67
2018-10-03T06:10:31.260Z,8.53
2018-10-03T06:12:59.517Z,5.00
2018-10-03T06:15:27.729Z,6.00
2018-10-03T06:17:55.956Z,6.27
2018-10-03T06:20:24.157Z,6.53
2018-10-03T06:22:52.328Z,3.83
2018-10-03T06:25:20.621Z,3.70
2018-10-03T06:27:48.905Z,4.47
2018-10-03T06:30:17.061Z,4.23
2018-10-03T06:32:45.306Z,6.67
2018-10-03T06:35:13.739Z,3.83
2018-10-03T06:37:41.970Z,7.03
2018-10-03T06:40:10.359Z,6.93
2018-10-03T06:42:38.912Z,5.50
2018-10-03T06:45:07.272Z,3.60
2018-10-03T06:47:35.472Z,2.87
2018-10-03T06:50:04.541Z,6.20
2018-10-03T06:52:32.861Z,4.90
2018-10-03T06:55:01.148Z,4.57
2018-10-03T06:57:29.597Z,10.77
2018-10-03T06:59:58.368Z,11.60
2018-10-03T07:02:26.562Z,6.27
2018-10-03T07:04:54.773Z,5.70
2018-10-03T07:07:23.193Z,4.67
2018-10-03T07:09:51.489Z,4.70
2018-10-03T07:12:19.656Z,6.93
2018-10-03T07:14:47.878Z,7.63
2018-10-03T07:17:16.105Z,9.57
2018-10-03T07:19:44.329Z,7.93
2018-10-03T07:22:12.557Z,7.43
2018-10-03T07:24:40.761Z,11.17
2018-10-03T07:27:09.007Z,9.77
2018-10-03T07:29:37.225Z,8.30
2018-10-03T07:32:05.473Z,11.63
2018-10-03T07:34:33.778Z,10.40
2018-10-03T07:37:02.004Z,12.80
2018-10-03T07:39:30.429Z,11.53
2018-10-03T07:41:58.652Z,8.67
2018-10-03T07:44:26.860Z,6.87
2018-10-03T07:46:55.228Z,11.67
2018-10-03T07:49:23.564Z,7.80
2018-10-03T07:51:51.806Z,8.87
2018-10-03T07:56:42.976Z,6.37
2018-10-03T07:59:11.216Z,8.07
2018-10-03T08:01:39.385Z,9.33
2018-10-03T08:04:07.661Z,6.70
2018-10-03T08:06:35.908Z,7.93
2018-10-03T08:09:05.650Z,8.47
2018-10-03T08:11:33.924Z,12.17
2018-10-03T08:14:02.081Z,6.83
2018-10-03T08:16:30.340Z,8.87
2018-10-03T08:18:58.615Z,7.43
2018-10-03T08:21:26.892Z,9.70
2018-10-03T08:23:55.149Z,10.43
2018-10-03T08:26:23.468Z,10.67
2018-10-03T08:28:51.694Z,9.13
2018-10-03T08:31:19.905Z,9.50
2018-10-03T08:33:48.150Z,6.90
2018-10-03T08:36:16.439Z,9.20
2018-10-03T08:38:44.737Z,9.17
2018-10-03T08:41:12.916Z,14.93
2018-10-03T08:43:41.140Z,11.67
2018-10-03T08:46:09.365Z,13.27
2018-10-03T08:48:37.867Z,6.80
2018-10-03T08:51:06.128Z,6.97
2018-10-03T08:53:34.349Z,7.93
2018-10-03T08:56:03.036Z,8.47
2018-10-03T08:58:31.477Z,9.70
2018-10-03T09:00:59.857Z,7.73
2018-10-03T09:03:28.076Z,10.33
2018-10-03T09:05:56.361Z,10.77
2018-10-03T09:08:24.817Z,12.97
2018-10-03T09:10:54.988Z,8.33
2018-10-03T09:13:23.210Z,8.30
2018-10-03T09:15:51.405Z,12.70
2018-10-03T09:18:19.669Z,8.33
2018-10-03T09:20:47.967Z,10.90
2018-10-03T09:23:16.133Z,11.70
2018-10-03T09:25:44.408Z,7.70
2018-10-03T09:28:14.283Z,7.30
2018-10-03T09:30:42.465Z,12.13
2018-10-03T09:33:10.683Z,10.07
2018-10-03T09:35:39.234Z,10.00
2018-10-03T09:38:07.400Z,14.47
2018-10-03T09:40:35.569Z,14.10
2018-10-03T09:43:03.769Z,8.33
2018-10-03T09:45:32.025Z,6.17
2018-10-03T09:48:00.241Z,8.43
2018-10-03T09:50:28.474Z,8.53
2018-10-03T09:52:56.696Z,10.87
2018-10-03T09:55:24.911Z,6.40
2018-10-03T09:57:53.110Z,6.33
2018-10-03T10:00:26.828Z,5.13
2018-10-03T10:02:55.001Z,10.07
2018-10-03T10:05:23.297Z,13.17
2018-10-03T10:07:51.725Z,6.20
2018-10-03T10:10:19.978Z,7.43
2018-10-03T10:12:48.200Z,9.40
2018-10-03T10:15:16.445Z,8.83
2018-10-03T10:17:44.654Z,5.73
2018-10-03T10:20:12.929Z,10.20
2018-10-03T10:22:41.203Z,10.00
2018-10-03T10:27:44.302Z,7.03
2018-10-03T10:30:12.552Z,7.97
2018-10-03T10:32:40.851Z,6.40
2018-10-03T10:35:08.946Z,8.63
2018-10-03T10:37:37.228Z,10.03
2018-10-03T10:40:06.374Z,10.30
2018-10-03T10:42:34.574Z,6.53
2018-10-03T10:45:02.749Z,6.13
2018-10-03T10:47:31.016Z,8.33
2018-10-03T10:49:59.265Z,8.67
2018-10-03T10:52:27.573Z,7.90
2018-10-03T10:54:55.821Z,6.93
2018-10-03T10:57:24.033Z,8.90
2018-10-03T10:59:52.469Z,5.50
2018-10-03T11:02:20.653Z,5.90
2018-10-03T11:04:48.824Z,4.97
2018-10-03T11:07:17.114Z,5.23
2018-10-03T11:09:45.297Z,6.97
2018-10-03T11:12:13.761Z,8.43
2018-10-03T11:14:41.965Z,10.40
2018-10-03T11:17:10.172Z,9.37
2018-10-03T11:19:38.449Z,4.43
2018-10-03T11:22:06.727Z,5.70
2018-10-03T11:24:35.079Z,6.60
2018-10-03T11:27:03.107Z,4.17
2018-10-03T11:29:32.217Z,6.00
2018-10-03T11:32:00.585Z,8.23
2018-10-03T11:34:28.769Z,4.67
2018-10-03T11:36:57.016Z,9.23
2018-10-03T11:39:25.197Z,7.97
2018-10-03T11:41:53.369Z,4.73
2018-10-03T11:44:22.547Z,6.37
2018-10-03T11:46:50.765Z,5.63
2018-10-03T11:49:18.971Z,5.50
2018-10-03T11:51:47.130Z,3.97
2018-10-03T11:54:15.412Z,10.73
2018-10-03T11:56:43.593Z,7.87
2018-10-03T11:59:11.803Z,8.40
2018-10-03T12:01:39.964Z,6.17
2018-10-03T12:04:08.245Z,6.17
2018-10-03T12:06:36.486Z,5.90
2018-10-03T12:09:08.136Z,10.23
2018-10-03T12:11:36.268Z,7.33
2018-10-03T12:14:04.559Z,5.37
2018-10-03T12:16:32.730Z,9.30
2018-10-03T12:19:00.943Z,6.67
2018-10-03T12:21:29.107Z,4.17
2018-10-03T12:23:57.296Z,8.10
2018-10-03T12:26:25.488Z,8.77
2018-10-03T12:28:55.721Z,9.17
2018-10-03T12:31:23.893Z,6.87
2018-10-03T12:33:52.144Z,7.67
2018-10-03T12:36:20.248Z,5.60
2018-10-03T12:38:48.432Z,5.77
2018-10-03T12:41:16.602Z,3.90
2018-10-03T12:43:44.795Z,9.07
2018-10-03T12:46:12.955Z,6.13
2018-10-03T12:48:41.156Z,5.40
2018-10-03T12:51:09.371Z,7.30
2018-10-03T12:53:37.568Z,6.27
2018-10-03T12:56:05.748Z,4.50
2018-10-03T12:58:33.969Z,9.13
2018-10-03T13:01:02.153Z,8.87
2018-10-03T13:03:30.402Z,7.00
2018-10-03T13:05:58.658Z,7.13
2018-10-03T13:08:26.905Z,6.13
2018-10-03T13:10:56.471Z,5.53
2018-10-03T13:13:24.747Z,5.90
2018-10-03T13:15:52.901Z,7.13
2018-10-03T13:18:21.835Z,5.33
2018-10-03T13:20:49.988Z,6.00
2018-10-03T13:23:18.170Z,5.10
2018-10-03T13:25:47.587Z,8.33
2018-10-03T13:28:15.781Z,7.13
2018-10-03T13:30:43.984Z,5.53
2018-10-03T13:33:12.128Z,9.10
2018-10-03T13:35:40.301Z,6.57
2018-10-03T13:38:08.466Z,7.53
2018-10-03T13:40:36.645Z,6.73
2018-10-03T13:43:04.841Z,8.50
2018-10-03T13:45:33.016Z,5.87
2018-10-03T13:48:01.179Z,6.97
2018-10-03T13:50:29.358Z,7.57
2018-10-03T13:52:57.517Z,8.53
2018-10-03T13:55:25.705Z,6.97
2018-10-03T13:57:57.722Z,9.37
2018-10-03T14:00:30.059Z,7.57
2018-10-03T14:03:01.799Z,6.07
2018-10-03T14:05:32.309Z,11.20
2018-10-03T14:08:02.909Z,8.83
2018-10-03T14:10:37.021Z,8.57
2018-10-03T14:13:10.967Z,6.87
2018-10-03T14:15:43.460Z,6.80
2018-10-03T14:18:15.186Z,5.53
2018-10-03T14:20:48.462Z,7.20
2018-10-03T14:23:19.780Z,4.93
2018-10-03T14:25:52.399Z,4.77
2018-10-03T14:28:25.226Z,5.77
2018-10-03T14:30:57.068Z,6.03
2018-10-03T14:33:28.784Z,4.57
2018-10-03T14:36:03.867Z,4.63
2018-10-03T14:38:36.470Z,5.93
2018-10-03T14:41:08.527Z,5.57
2018-10-03T14:43:42.176Z,5.50
2018-10-03T14:46:15.676Z,7.27
2018-10-03T14:48:47.057Z,6.23
2018-10-03T14:51:18.517Z,7.83
2018-10-03T14:53:51.219Z,9.20
2018-10-03T14:56:22.846Z,6.27
2018-10-03T14:58:54.987Z,4.50
2018-10-03T15:01:29.974Z,5.73
2018-10-03T15:04:01.845Z,8.10
2018-10-03T15:06:33.803Z,7.03
2018-10-03T15:09:01.983Z,9.93
2018-10-03T15:11:30.156Z,7.87
2018-10-03T15:13:58.314Z,5.13
2018-10-03T15:16:26.553Z,9.33
2018-10-03T15:18:54.722Z,8.43
2018-10-03T15:21:22.921Z,4.73
2018-10-03T15:23:51.084Z,5.60
2018-10-03T15:26:19.629Z,5.47
2018-10-03T15:28:47.829Z,5.67
2018-10-03T15:31:16.004Z,8.87
2018-10-03T15:33:44.514Z,7.70
2018-10-03T15:36:12.891Z,6.73
2018-10-03T15:38:41.108Z,6.47
2018-10-03T15:41:09.281Z,5.30
2018-10-03T15:43:37.914Z,7.60
2018-10-03T15:46:06.272Z,7.27
2018-10-03T15:48:34.420Z,7.90
2018-10-03T15:51:02.650Z,4.80
2018-10-03T15:53:30.806Z,4.87
2018-10-03T15:55:59.151Z,3.83
2018-10-03T15:58:27.324Z,6.07
2018-10-03T16:00:55.510Z,3.57
2018-10-03T16:03:23.660Z,8.30
2018-10-03T16:05:52.172Z,5.63
2018-10-03T16:08:20.329Z,3.93
2018-10-03T16:10:48.543Z,5.20
2018-10-03T16:13:16.705Z,7.27
2018-10-03T16:15:44.897Z,7.17
2018-10-03T16:18:13.052Z,7.53
2018-10-03T16:20:43.938Z,7.57
2018-10-03T16:23:12.098Z,4.87
2018-10-03T16:25:40.285Z,4.40
2018-10-03T16:28:08.448Z,4.73
2018-10-03T16:30:36.633Z,6.97
2018-10-03T16:33:06.154Z,5.90
2018-10-03T16:35:34.340Z,4.80
2018-10-03T16:38:02.503Z,3.60
2018-10-03T16:40:30.688Z,8.30
2018-10-03T16:43:00.768Z,4.80
2018-10-03T16:45:29.048Z,4.27
2018-10-03T16:47:57.274Z,6.90
2018-10-03T16:50:25.582Z,5.60
2018-10-03T16:52:53.768Z,3.43
2018-10-03T16:55:22.069Z,5.17
2018-10-03T16:57:50.225Z,6.43
2018-10-03T17:00:18.807Z,5.90
2018-10-03T17:02:47.391Z,2.43
2018-10-03T17:05:15.574Z,4.50
2018-10-03T17:07:43.724Z,3.53
2018-10-03T17:10:11.969Z,2.27
2018-10-03T17:12:40.138Z,3.47
2018-10-03T17:15:08.353Z,2.47
2018-10-03T17:17:36.481Z,2.23
2018-10-03T17:20:04.698Z,1.57
2018-10-03T17:22:33.580Z,2.27
2018-10-03T17:25:01.809Z,2.20
2018-10-03T17:27:30.013Z,3.03
2018-10-03T17:29:58.149Z,2.20
2018-10-03T17:32:26.328Z,4.23
2018-10-03T17:34:54.589Z,2.60
2018-10-03T17:37:22.778Z,1.93
2018-10-03T17:39:51.164Z,1.70
2018-10-03T17:42:19.341Z,4.40
2018-10-03T17:44:47.529Z,1.87
2018-10-03T17:47:15.722Z,1.70
2018-10-03T17:49:43.879Z,1.93
2018-10-03T17:52:12.060Z,1.53
2018-10-03T17:54:40.241Z,1.73
2018-10-03T17:57:08.417Z,1.97
2018-10-03T17:59:36.596Z,2.37
2018-10-03T18:02:07.555Z,3.80
2018-10-03T18:04:36.192Z,1.43
2018-10-03T18:07:04.456Z,1.50
2018-10-03T18:09:32.613Z,1.20
2018-10-03T18:12:00.801Z,2.87
2018-10-03T18:14:29.309Z,1.40
2018-10-03T18:16:58.304Z,2.10
2018-10-03T18:19:27.517Z,1.33
2018-10-03T18:21:57.282Z,1.17
2018-10-03T18:24:26.116Z,1.40
2018-10-03T18:26:55.560Z,1.07
2018-10-03T18:29:24.808Z,2.13
2018-10-03T18:31:53.654Z,1.60
2018-10-03T18:34:22.678Z,1.90
2018-10-03T18:36:52.577Z,1.20
2018-10-03T18:39:21.986Z,1.10
2018-10-03T18:41:51.681Z,0.97
2018-10-03T18:44:20.915Z,1.77
2018-10-03T18:46:50.151Z,1.87
2018-10-03T18:49:19.428Z,1.90
2018-10-03T18:51:48.684Z,1.17
2018-10-03T18:54:17.933Z,1.33
2018-10-03T18:56:46.330Z,4.17
2018-10-03T18:59:14.533Z,2.60
2018-10-03T19:01:42.802Z,2.20
2018-10-03T19:04:10.965Z,3.10
2018-10-03T19:06:39.172Z,3.70
2018-10-03T19:09:08.395Z,4.60
2018-10-03T19:11:36.584Z,2.83
2018-10-03T19:14:04.778Z,3.30
2018-10-03T19:16:32.969Z,2.87
2018-10-03T19:19:01.133Z,2.17
2018-10-03T19:21:29.334Z,2.37
2018-10-03T19:23:57.561Z,3.87
2018-10-03T19:26:25.769Z,2.93
2018-10-03T19:28:53.938Z,2.27
2018-10-03T19:31:22.128Z,3.00
2018-10-03T19:33:50.428Z,1.90
2018-10-03T19:36:18.772Z,1.53
2018-10-03T19:38:46.996Z,2.00
2018-10-03T19:41:15.144Z,1.80
2018-10-03T19:43:43.555Z,1.30
2018-10-03T19:46:11.726Z,1.83
2018-10-03T19:48:39.962Z,1.30
2018-10-03T19:51:08.133Z,3.17
2018-10-03T19:53:37.137Z,1.27
2018-10-03T19:56:05.316Z,1.57
2018-10-03T19:58:33.529Z,1.13
2018-10-03T20:01:01.721Z,1.40
2018-10-03T20:03:30.025Z,1.60
2018-10-03T20:05:58.178Z,1.03
2018-10-03T20:08:26.392Z,1.00
2018-10-03T20:10:54.557Z,1.37
2018-10-03T20:13:22.783Z,1.20
2018-10-03T20:15:51.397Z,2.13
2018-10-03T20:18:19.887Z,1.43
2018-10-03T20:20:48.101Z,2.63
2018-10-03T20:23:16.225Z,3.17
2018-10-03T20:25:44.390Z,1.90
2018-10-03T20:28:12.577Z,1.50
2018-10-03T20:30:40.737Z,2.13
2018-10-03T20:33:08.968Z,2.03
2018-10-03T20:35:37.129Z,3.03
2018-10-03T20:38:05.449Z,2.57
2018-10-03T20:40:33.637Z,1.77
2018-10-03T20:43:01.842Z,2.03
2018-10-03T20:45:30.000Z,1.43
2018-10-03T20:47:58.177Z,2.73
2018-10-03T20:50:26.331Z,1.70
2018-10-03T20:52:54.711Z,1.37
2018-10-03T20:55:22.864Z,1.97
2018-10-03T20:57:51.040Z,1.90
2018-10-03T21:00:19.217Z,3.27
2018-10-03T21:02:47.429Z,3.30
2018-10-03T21:05:15.610Z,1.73
2018-10-03T21:07:43.754Z,1.80
2018-10-03T21:10:11.965Z,2.67
2018-10-03T21:12:40.117Z,2.03
2018-10-03T21:15:08.752Z,4.20
2018-10-03T21:17:36.932Z,4.50
2018-10-03T21:20:05.105Z,4.63
2018-10-03T21:22:33.264Z,2.27
2018-10-03T21:25:01.555Z,2.00
2018-10-03T21:27:29.625Z,1.50
2018-10-03T21:29:57.815Z,1.87
2018-10-03T21:32:26.061Z,2.13
2018-10-03T21:34:54.210Z,1.40
2018-10-03T21:37:22.380Z,1.73
2018-10-03T21:39:50.584Z,2.57
2018-10-03T21:42:18.736Z,2.00
2018-10-03T21:44:46.922Z,1.40
2018-10-03T21:47:15.073Z,4.13
2018-10-03T21:49:43.302Z,7.20
2018-10-03T21:52:11.434Z,5.00
2018-10-03T21:54:39.604Z,8.23
2018-10-03T21:57:07.761Z,4.73
2018-10-03T21:59:36.015Z,3.87
2018-10-03T22:02:07.244Z,7.60
2018-10-03T22:04:35.406Z,3.83
2018-10-03T22:07:03.572Z,7.00
2018-10-03T22:09:31.757Z,5.53
2018-10-03T22:11:59.921Z,6.97
2018-10-03T22:14:28.097Z,12.03
2018-10-03T22:16:56.479Z,5.20
2018-10-03T22:19:24.705Z,5.40
2018-10-03T22:21:52.861Z,4.03
2018-10-03T22:24:21.042Z,4.10
2018-10-03T22:26:49.199Z,6.70
2018-10-03T22:29:17.375Z,4.70
2018-10-03T22:31:45.589Z,3.70
2018-10-03T22:34:13.897Z,4.50
2018-10-03T22:36:42.247Z,5.77
2018-10-03T22:39:11.009Z,5.33
2018-10-03T22:41:39.281Z,3.03
2018-10-03T22:44:08.024Z,4.53
2018-10-03T22:46:36.570Z,3.23
2018-10-03T22:49:05.352Z,3.47
2018-10-03T22:51:33.993Z,6.10
2018-10-03T22:54:02.447Z,4.23
2018-10-03T22:56:30.624Z,4.10
2018-10-03T22:58:58.782Z,3.83
2018-10-03T23:01:26.964Z,7.97
2018-10-03T23:03:55.122Z,7.30
2018-10-03T23:06:23.300Z,4.37
2018-10-03T23:08:51.459Z,2.83
2018-10-03T23:11:19.637Z,7.17
2018-10-03T23:13:47.796Z,3.40
2018-10-03T23:16:15.973Z,3.33
2018-10-03T23:18:44.121Z,2.73
2018-10-03T23:21:12.301Z,4.03
2018-10-03T23:23:40.493Z,2.13
2018-10-03T23:26:08.884Z,2.73
2018-10-03T23:28:37.057Z,3.13
2018-10-03T23:31:05.477Z,2.50
2018-10-03T23:33:33.933Z,2.33
2018-10-03T23:36:02.192Z,2.90
2018-10-03T23:38:30.341Z,5.00
2018-10-03T23:40:58.521Z,2.40
2018-10-03T23:43:26.683Z,2.10
2018-10-03T23:45:54.863Z,2.87
2018-10-03T23:48:23.049Z,1.80
2018-10-03T23:50:51.213Z,1.80
2018-10-03T23:53:19.364Z,2.17
2018-10-03T23:55:47.571Z,2.17
2018-10-03T23:58:15.737Z,3.40
